sensor_id;sensor_type;location;lat;lon;timestamp;pressure;altitude;pressure_sealevel;temperature;humidity
5595;BME280;1003;48.002;7.788;2022-09-09T00:02:15;98532.47;;;15.79;100.00
5595;BME280;1003;48.002;7.788;2022-09-09T00:04:58;98532.56;;;15.76;100.00
5595;BME280;1003;48.002;7.788;2022-09-09T00:07:42;98534.44;;;15.72;100.00
5595;BME280;1003;48.002;7.788;2022-09-09T00:10:20;98533.66;;;15.70;100.00
5595;BME280;1003;48.002;7.788;2022-09-09T00:13:01;98540.28;;;15.53;100.00
5595;BME280;1003;48.002;7.788;2022-09-09T00:15:41;98541.84;;;15.35;100.00
5595;BME280;1003;48.002;7.788;2022-09-09T00:18:22;98539.66;;;15.26;100.00
5595;BME280;1003;48.002;7.788;2022-09-09T00:20:58;98539.84;;;15.21;100.00
5595;BME280;1003;48.002;7.788;2022-09-09T00:23:33;98547.34;;;15.24;100.00
5595;BME280;1003;48.002;7.788;2022-09-09T00:26:09;98548.25;;;15.21;100.00
5595;BME280;1003;48.002;7.788;2022-09-09T00:28:47;98555.81;;;15.23;100.00
5595;BME280;1003;48.002;7.788;2022-09-09T00:31:22;98542.94;;;15.28;100.00
5595;BME280;1003;48.002;7.788;2022-09-09T00:33:52;98557.25;;;15.51;100.00
5595;BME280;1003;48.002;7.788;2022-09-09T00:36:24;98555.41;;;15.34;100.00
5595;BME280;1003;48.002;7.788;2022-09-09T00:38:58;98560.81;;;15.25;100.00
5595;BME280;1003;48.002;7.788;2022-09-09T00:41:42;98548.22;;;15.23;100.00
5595;BME280;1003;48.002;7.788;2022-09-09T00:44:30;98545.69;;;15.23;100.00
5595;BME280;1003;48.002;7.788;2022-09-09T00:47:14;98548.22;;;15.23;100.00
5595;BME280;1003;48.002;7.788;2022-09-09T00:49:59;98558.78;;;15.33;100.00
5595;BME280;1003;48.002;7.788;2022-09-09T00:52:38;98554.19;;;15.42;100.00
5595;BME280;1003;48.002;7.788;2022-09-09T00:55:15;98558.47;;;15.62;100.00
5595;BME280;1003;48.002;7.788;2022-09-09T00:57:45;98567.19;;;15.55;100.00
5595;BME280;1003;48.002;7.788;2022-09-09T01:00:20;98558.91;;;15.52;100.00
5595;BME280;1003;48.002;7.788;2022-09-09T01:03:11;98561.34;;;15.53;100.00
5595;BME280;1003;48.002;7.788;2022-09-09T01:06:00;98556.59;;;15.45;100.00
5595;BME280;1003;48.002;7.788;2022-09-09T01:09:07;98554.44;;;15.36;100.00
5595;BME280;1003;48.002;7.788;2022-09-09T01:11:49;98547.34;;;15.24;100.00
5595;BME280;1003;48.002;7.788;2022-09-09T01:14:33;98535.03;;;15.15;100.00
5595;BME280;1003;48.002;7.788;2022-09-09T01:17:13;98532.97;;;15.03;100.00
5595;BME280;1003;48.002;7.788;2022-09-09T01:19:58;98532.31;;;14.98;100.00
5595;BME280;1003;48.002;7.788;2022-09-09T01:22:39;98529.91;;;14.94;100.00
5595;BME280;1003;48.002;7.788;2022-09-09T01:25:29;98533.16;;;14.98;100.00
5595;BME280;1003;48.002;7.788;2022-09-09T01:28:04;98537.25;;;15.01;100.00
5595;BME280;1003;48.002;7.788;2022-09-09T01:30:38;98546.09;;;15.12;100.00
5595;BME280;1003;48.002;7.788;2022-09-09T01:33:10;98551.75;;;15.19;100.00
5595;BME280;1003;48.002;7.788;2022-09-09T01:35:46;98563.41;;;15.23;100.00
5595;BME280;1003;48.002;7.788;2022-09-09T01:38:17;98566.44;;;15.31;100.00
5595;BME280;1003;48.002;7.788;2022-09-09T01:40:45;98571.34;;;15.36;100.00
5595;BME280;1003;48.002;7.788;2022-09-09T01:43:14;98570.34;;;15.40;100.00
5595;BME280;1003;48.002;7.788;2022-09-09T01:45:44;98561.78;;;15.42;100.00
5595;BME280;1003;48.002;7.788;2022-09-09T01:48:13;98554.06;;;15.45;100.00
5595;BME280;1003;48.002;7.788;2022-09-09T01:50:40;98558.09;;;15.49;100.00
5595;BME280;1003;48.002;7.788;2022-09-09T01:53:08;98559.78;;;15.51;100.00
5595;BME280;1003;48.002;7.788;2022-09-09T01:55:39;98564.03;;;15.50;100.00
5595;BME280;1003;48.002;7.788;2022-09-09T01:58:25;98563.13;;;15.51;100.00
5595;BME280;1003;48.002;7.788;2022-09-09T02:01:08;98565.50;;;15.56;100.00
5595;BME280;1003;48.002;7.788;2022-09-09T02:03:39;98559.34;;;15.61;100.00
5595;BME280;1003;48.002;7.788;2022-09-09T02:06:23;98555.94;;;15.62;100.00
5595;BME280;1003;48.002;7.788;2022-09-09T02:08:56;98554.41;;;15.58;100.00
5595;BME280;1003;48.002;7.788;2022-09-09T02:11:27;98550.81;;;15.64;100.00
5595;BME280;1003;48.002;7.788;2022-09-09T02:14:00;98552.47;;;15.65;100.00
5595;BME280;1003;48.002;7.788;2022-09-09T02:16:36;98549.25;;;15.60;100.00
5595;BME280;1003;48.002;7.788;2022-09-09T02:19:10;98549.47;;;15.55;100.00
5595;BME280;1003;48.002;7.788;2022-09-09T02:21:42;98552.88;;;15.54;100.00
5595;BME280;1003;48.002;7.788;2022-09-09T02:24:14;98549.34;;;15.58;100.00
5595;BME280;1003;48.002;7.788;2022-09-09T02:26:46;98547.50;;;15.62;100.00
5595;BME280;1003;48.002;7.788;2022-09-09T02:29:21;98553.41;;;15.62;100.00
5595;BME280;1003;48.002;7.788;2022-09-09T02:31:51;98545.16;;;15.57;100.00
5595;BME280;1003;48.002;7.788;2022-09-09T02:34:23;98550.22;;;15.57;100.00
5595;BME280;1003;48.002;7.788;2022-09-09T02:36:55;98547.75;;;15.56;100.00
5595;BME280;1003;48.002;7.788;2022-09-09T02:39:24;98535.97;;;15.55;100.00
5595;BME280;1003;48.002;7.788;2022-09-09T02:41:51;98545.34;;;15.53;100.00
5595;BME280;1003;48.002;7.788;2022-09-09T02:44:20;98546.03;;;15.56;100.00
5595;BME280;1003;48.002;7.788;2022-09-09T02:47:08;98549.84;;;15.46;100.00
5595;BME280;1003;48.002;7.788;2022-09-09T02:49:53;98550.91;;;15.40;100.00
5595;BME280;1003;48.002;7.788;2022-09-09T02:52:38;98551.00;;;15.37;100.00
5595;BME280;1003;48.002;7.788;2022-09-09T02:55:20;98541.88;;;15.33;100.00
5595;BME280;1003;48.002;7.788;2022-09-09T02:57:52;98540.31;;;15.31;100.00
5595;BME280;1003;48.002;7.788;2022-09-09T03:00:26;98547.78;;;15.34;100.00
5595;BME280;1003;48.002;7.788;2022-09-09T03:02:55;98537.47;;;15.38;100.00
5595;BME280;1003;48.002;7.788;2022-09-09T03:05:22;98543.97;;;15.44;100.00
5595;BME280;1003;48.002;7.788;2022-09-09T03:07:49;98538.69;;;15.50;100.00
5595;BME280;1003;48.002;7.788;2022-09-09T03:10:17;98548.63;;;15.55;100.00
5595;BME280;1003;48.002;7.788;2022-09-09T03:12:44;98545.09;;;15.59;100.00
5595;BME280;1003;48.002;7.788;2022-09-09T03:15:11;98546.66;;;15.63;100.00
5595;BME280;1003;48.002;7.788;2022-09-09T03:17:41;98544.00;;;15.66;100.00
5595;BME280;1003;48.002;7.788;2022-09-09T03:20:09;98537.06;;;15.69;100.00
5595;BME280;1003;48.002;7.788;2022-09-09T03:22:36;98541.25;;;15.70;100.00
5595;BME280;1003;48.002;7.788;2022-09-09T03:25:04;98535.25;;;15.73;100.00
5595;BME280;1003;48.002;7.788;2022-09-09T03:27:31;98535.09;;;15.76;100.00
5595;BME280;1003;48.002;7.788;2022-09-09T03:29:59;98537.53;;;15.79;100.00
5595;BME280;1003;48.002;7.788;2022-09-09T03:32:30;98536.53;;;15.83;100.00
5595;BME280;1003;48.002;7.788;2022-09-09T03:34:58;98536.44;;;15.85;100.00
5595;BME280;1003;48.002;7.788;2022-09-09T03:37:25;98536.25;;;15.89;100.00
5595;BME280;1003;48.002;7.788;2022-09-09T03:39:52;98537.00;;;15.91;100.00
5595;BME280;1003;48.002;7.788;2022-09-09T03:42:21;98537.81;;;15.92;100.00
5595;BME280;1003;48.002;7.788;2022-09-09T03:44:48;98536.38;;;15.86;100.00
5595;BME280;1003;48.002;7.788;2022-09-09T03:47:17;98534.00;;;15.83;100.00
5595;BME280;1003;48.002;7.788;2022-09-09T03:49:45;98534.47;;;15.71;100.00
5595;BME280;1003;48.002;7.788;2022-09-09T03:52:14;98540.16;;;15.56;100.00
5595;BME280;1003;48.002;7.788;2022-09-09T03:54:41;98538.16;;;15.42;100.00
5595;BME280;1003;48.002;7.788;2022-09-09T03:57:09;98528.47;;;15.31;100.00
5595;BME280;1003;48.002;7.788;2022-09-09T03:59:37;98530.28;;;15.28;100.00
5595;BME280;1003;48.002;7.788;2022-09-09T04:02:04;98525.13;;;15.31;100.00
5595;BME280;1003;48.002;7.788;2022-09-09T04:04:31;98526.22;;;15.45;100.00
5595;BME280;1003;48.002;7.788;2022-09-09T04:06:58;98528.16;;;15.59;100.00
5595;BME280;1003;48.002;7.788;2022-09-09T04:09:26;98520.47;;;15.62;100.00
5595;BME280;1003;48.002;7.788;2022-09-09T04:11:53;98523.97;;;15.80;100.00
5595;BME280;1003;48.002;7.788;2022-09-09T04:14:21;98525.59;;;15.81;100.00
5595;BME280;1003;48.002;7.788;2022-09-09T04:16:48;98530.13;;;15.74;100.00
5595;BME280;1003;48.002;7.788;2022-09-09T04:19:15;98532.34;;;15.82;100.00
5595;BME280;1003;48.002;7.788;2022-09-09T04:21:42;98534.25;;;15.77;100.00
5595;BME280;1003;48.002;7.788;2022-09-09T04:24:10;98533.34;;;15.78;100.00
5595;BME280;1003;48.002;7.788;2022-09-09T04:26:38;98535.38;;;15.90;100.00
5595;BME280;1003;48.002;7.788;2022-09-09T04:29:05;98538.53;;;15.95;100.00
5595;BME280;1003;48.002;7.788;2022-09-09T04:31:34;98538.78;;;15.89;100.00
5595;BME280;1003;48.002;7.788;2022-09-09T04:34:01;98542.97;;;15.90;100.00
5595;BME280;1003;48.002;7.788;2022-09-09T04:36:31;98535.25;;;15.93;100.00
5595;BME280;1003;48.002;7.788;2022-09-09T04:38:58;98529.28;;;15.94;100.00
5595;BME280;1003;48.002;7.788;2022-09-09T04:41:27;98533.75;;;16.08;100.00
5595;BME280;1003;48.002;7.788;2022-09-09T04:43:55;98529.88;;;16.20;100.00
5595;BME280;1003;48.002;7.788;2022-09-09T04:46:23;98533.88;;;16.25;100.00
5595;BME280;1003;48.002;7.788;2022-09-09T04:48:50;98541.88;;;16.35;100.00
5595;BME280;1003;48.002;7.788;2022-09-09T04:51:19;98545.84;;;16.41;100.00
5595;BME280;1003;48.002;7.788;2022-09-09T04:53:46;98547.06;;;16.52;100.00
5595;BME280;1003;48.002;7.788;2022-09-09T04:56:16;98544.56;;;16.70;100.00
5595;BME280;1003;48.002;7.788;2022-09-09T04:58:43;98542.00;;;16.71;100.00
5595;BME280;1003;48.002;7.788;2022-09-09T05:01:15;98545.84;;;16.80;100.00
5595;BME280;1003;48.002;7.788;2022-09-09T05:03:43;98540.88;;;16.77;100.00
5595;BME280;1003;48.002;7.788;2022-09-09T05:06:13;98552.69;;;16.78;100.00
5595;BME280;1003;48.002;7.788;2022-09-09T05:08:42;98552.63;;;16.79;100.00
5595;BME280;1003;48.002;7.788;2022-09-09T05:11:16;98559.19;;;16.84;100.00
5595;BME280;1003;48.002;7.788;2022-09-09T05:13:45;98558.16;;;16.88;100.00
5595;BME280;1003;48.002;7.788;2022-09-09T05:16:14;98549.25;;;16.98;100.00
5595;BME280;1003;48.002;7.788;2022-09-09T05:18:42;98555.91;;;17.00;100.00
5595;BME280;1003;48.002;7.788;2022-09-09T05:21:10;98553.06;;;17.07;100.00
5595;BME280;1003;48.002;7.788;2022-09-09T05:23:38;98547.91;;;17.08;100.00
5595;BME280;1003;48.002;7.788;2022-09-09T05:26:07;98554.06;;;17.21;100.00
5595;BME280;1003;48.002;7.788;2022-09-09T05:28:36;98557.50;;;17.20;100.00
5595;BME280;1003;48.002;7.788;2022-09-09T05:31:05;98559.53;;;17.31;100.00
5595;BME280;1003;48.002;7.788;2022-09-09T05:33:35;98561.97;;;17.32;100.00
5595;BME280;1003;48.002;7.788;2022-09-09T05:36:05;98559.09;;;17.40;100.00
5595;BME280;1003;48.002;7.788;2022-09-09T05:38:34;98566.56;;;17.43;100.00
5595;BME280;1003;48.002;7.788;2022-09-09T05:41:03;98565.69;;;17.44;100.00
5595;BME280;1003;48.002;7.788;2022-09-09T05:43:30;98566.22;;;17.51;100.00
5595;BME280;1003;48.002;7.788;2022-09-09T05:46:03;98568.22;;;17.62;100.00
5595;BME280;1003;48.002;7.788;2022-09-09T05:48:32;98569.03;;;17.62;100.00
5595;BME280;1003;48.002;7.788;2022-09-09T05:51:02;98568.97;;;17.64;100.00
5595;BME280;1003;48.002;7.788;2022-09-09T05:53:30;98572.88;;;17.71;100.00
5595;BME280;1003;48.002;7.788;2022-09-09T05:56:01;98572.38;;;17.81;100.00
5595;BME280;1003;48.002;7.788;2022-09-09T05:58:30;98579.22;;;17.79;100.00
5595;BME280;1003;48.002;7.788;2022-09-09T06:01:02;98570.13;;;17.93;100.00
5595;BME280;1003;48.002;7.788;2022-09-09T06:03:30;98577.81;;;18.08;100.00
5595;BME280;1003;48.002;7.788;2022-09-09T06:05:58;98575.78;;;18.15;100.00
5595;BME280;1003;48.002;7.788;2022-09-09T06:08:27;98574.72;;;18.19;100.00
5595;BME280;1003;48.002;7.788;2022-09-09T06:11:01;98573.00;;;18.20;100.00
5595;BME280;1003;48.002;7.788;2022-09-09T06:13:30;98575.03;;;18.29;100.00
5595;BME280;1003;48.002;7.788;2022-09-09T06:15:57;98574.13;;;18.47;100.00
5595;BME280;1003;48.002;7.788;2022-09-09T06:18:25;98578.13;;;19.00;100.00
5595;BME280;1003;48.002;7.788;2022-09-09T06:20:57;98577.50;;;19.43;100.00
5595;BME280;1003;48.002;7.788;2022-09-09T06:23:28;98568.00;;;19.60;100.00
5595;BME280;1003;48.002;7.788;2022-09-09T06:26:04;98573.19;;;20.17;100.00
5595;BME280;1003;48.002;7.788;2022-09-09T06:28:31;98572.66;;;20.27;100.00
5595;BME280;1003;48.002;7.788;2022-09-09T06:30:59;98579.00;;;20.05;100.00
5595;BME280;1003;48.002;7.788;2022-09-09T06:33:30;98573.00;;;20.06;100.00
5595;BME280;1003;48.002;7.788;2022-09-09T06:35:57;98579.94;;;20.18;100.00
5595;BME280;1003;48.002;7.788;2022-09-09T06:38:26;98589.56;;;20.99;96.00
5595;BME280;1003;48.002;7.788;2022-09-09T06:40:54;98587.56;;;20.90;93.33
5595;BME280;1003;48.002;7.788;2022-09-09T06:43:22;98594.81;;;20.40;92.86
5595;BME280;1003;48.002;7.788;2022-09-09T06:45:56;98600.69;;;20.12;97.48
5595;BME280;1003;48.002;7.788;2022-09-09T06:48:24;98592.59;;;19.61;100.00
5595;BME280;1003;48.002;7.788;2022-09-09T06:51:01;98587.94;;;19.38;100.00
5595;BME280;1003;48.002;7.788;2022-09-09T06:53:30;98595.53;;;19.70;100.00
5595;BME280;1003;48.002;7.788;2022-09-09T06:55:59;98596.00;;;20.35;100.00
5595;BME280;1003;48.002;7.788;2022-09-09T06:58:28;98592.28;;;21.37;89.81
5595;BME280;1003;48.002;7.788;2022-09-09T07:01:02;98590.44;;;22.05;80.42
5595;BME280;1003;48.002;7.788;2022-09-09T07:03:30;98604.50;;;22.50;79.61
5595;BME280;1003;48.002;7.788;2022-09-09T07:05:58;98600.53;;;22.70;73.83
5595;BME280;1003;48.002;7.788;2022-09-09T07:08:25;98607.84;;;22.38;75.26
5595;BME280;1003;48.002;7.788;2022-09-09T07:10:54;98613.16;;;21.96;81.21
5595;BME280;1003;48.002;7.788;2022-09-09T07:13:24;98619.84;;;21.59;83.96
5595;BME280;1003;48.002;7.788;2022-09-09T07:15:52;98619.78;;;21.34;88.64
5595;BME280;1003;48.002;7.788;2022-09-09T07:18:20;98613.06;;;21.98;81.44
5595;BME280;1003;48.002;7.788;2022-09-09T07:20:53;98610.56;;;22.23;73.69
5595;BME280;1003;48.002;7.788;2022-09-09T07:23:22;98616.09;;;22.17;74.00
5595;BME280;1003;48.002;7.788;2022-09-09T07:25:50;98619.22;;;22.46;72.20
5595;BME280;1003;48.002;7.788;2022-09-09T07:28:21;98627.50;;;23.12;72.50
5595;BME280;1003;48.002;7.788;2022-09-09T07:30:54;98626.56;;;23.26;70.01
5595;BME280;1003;48.002;7.788;2022-09-09T07:33:21;98626.56;;;23.61;65.24
5595;BME280;1003;48.002;7.788;2022-09-09T07:35:50;98626.41;;;23.51;64.71
5595;BME280;1003;48.002;7.788;2022-09-09T07:38:17;98635.25;;;24.06;69.94
5595;BME280;1003;48.002;7.788;2022-09-09T07:40:44;98639.03;;;24.58;64.79
5595;BME280;1003;48.002;7.788;2022-09-09T07:43:11;98642.53;;;24.91;61.50
5595;BME280;1003;48.002;7.788;2022-09-09T07:45:40;98649.88;;;24.96;62.42
5595;BME280;1003;48.002;7.788;2022-09-09T07:48:09;98641.75;;;24.46;62.45
5595;BME280;1003;48.002;7.788;2022-09-09T07:50:37;98645.22;;;23.87;63.97
5595;BME280;1003;48.002;7.788;2022-09-09T07:53:05;98656.16;;;23.54;64.35
5595;BME280;1003;48.002;7.788;2022-09-09T07:55:32;98658.03;;;23.28;69.81
5595;BME280;1003;48.002;7.788;2022-09-09T07:57:59;98660.59;;;22.78;67.34
5595;BME280;1003;48.002;7.788;2022-09-09T08:00:26;98653.25;;;22.61;70.57
5595;BME280;1003;48.002;7.788;2022-09-09T08:02:55;98648.50;;;22.93;69.53
5595;BME280;1003;48.002;7.788;2022-09-09T08:05:22;98652.84;;;23.17;68.99
5595;BME280;1003;48.002;7.788;2022-09-09T08:07:49;98652.38;;;22.86;67.06
5595;BME280;1003;48.002;7.788;2022-09-09T08:10:19;98645.97;;;22.30;72.06
5595;BME280;1003;48.002;7.788;2022-09-09T08:12:46;98643.41;;;22.42;74.21
5595;BME280;1003;48.002;7.788;2022-09-09T08:15:14;98644.63;;;22.62;70.25
5595;BME280;1003;48.002;7.788;2022-09-09T08:17:41;98648.34;;;22.45;70.30
5595;BME280;1003;48.002;7.788;2022-09-09T08:20:11;98648.00;;;22.37;71.67
5595;BME280;1003;48.002;7.788;2022-09-09T08:22:38;98648.53;;;22.30;71.16
5595;BME280;1003;48.002;7.788;2022-09-09T08:25:06;98651.59;;;22.60;70.32
5595;BME280;1003;48.002;7.788;2022-09-09T08:27:34;98647.34;;;22.85;72.46
5595;BME280;1003;48.002;7.788;2022-09-09T08:30:01;98651.94;;;23.05;69.68
5595;BME280;1003;48.002;7.788;2022-09-09T08:32:28;98658.56;;;23.20;68.32
5595;BME280;1003;48.002;7.788;2022-09-09T08:34:55;98651.09;;;23.17;71.17
5595;BME280;1003;48.002;7.788;2022-09-09T08:37:24;98661.97;;;23.08;69.17
5595;BME280;1003;48.002;7.788;2022-09-09T08:39:51;98654.34;;;22.95;68.85
5595;BME280;1003;48.002;7.788;2022-09-09T08:42:38;98654.63;;;22.91;68.70
5595;BME280;1003;48.002;7.788;2022-09-09T08:45:25;98649.09;;;22.97;69.71
5595;BME280;1003;48.002;7.788;2022-09-09T08:48:17;98655.75;;;22.87;69.24
5595;BME280;1003;48.002;7.788;2022-09-09T08:50:50;98660.06;;;22.86;67.81
5595;BME280;1003;48.002;7.788;2022-09-09T08:53:23;98665.28;;;22.85;67.97
5595;BME280;1003;48.002;7.788;2022-09-09T08:55:58;98671.88;;;22.89;71.42
5595;BME280;1003;48.002;7.788;2022-09-09T08:58:29;98665.41;;;23.33;66.37
5595;BME280;1003;48.002;7.788;2022-09-09T09:01:26;98674.50;;;23.37;66.67
5595;BME280;1003;48.002;7.788;2022-09-09T09:04:04;98671.34;;;23.57;64.12
5595;BME280;1003;48.002;7.788;2022-09-09T09:06:47;98668.34;;;23.87;62.99
5595;BME280;1003;48.002;7.788;2022-09-09T09:09:24;98668.16;;;24.01;59.58
5595;BME280;1003;48.002;7.788;2022-09-09T09:12:00;98660.44;;;24.01;57.54
5595;BME280;1003;48.002;7.788;2022-09-09T09:14:30;98665.47;;;24.14;57.29
5595;BME280;1003;48.002;7.788;2022-09-09T09:17:03;98665.75;;;24.33;54.87
5595;BME280;1003;48.002;7.788;2022-09-09T09:19:34;98664.19;;;24.55;53.79
5595;BME280;1003;48.002;7.788;2022-09-09T09:22:06;98658.69;;;24.59;54.00
5595;BME280;1003;48.002;7.788;2022-09-09T09:24:45;98659.59;;;25.03;50.12
5595;BME280;1003;48.002;7.788;2022-09-09T09:27:25;98651.91;;;25.47;49.88
5595;BME280;1003;48.002;7.788;2022-09-09T09:29:58;98658.72;;;25.69;47.89
5595;BME280;1003;48.002;7.788;2022-09-09T09:32:30;98653.72;;;26.09;49.33
5595;BME280;1003;48.002;7.788;2022-09-09T09:35:00;98655.09;;;26.34;48.70
5595;BME280;1003;48.002;7.788;2022-09-09T09:37:32;98659.50;;;26.22;47.42
5595;BME280;1003;48.002;7.788;2022-09-09T09:40:10;98650.44;;;26.49;46.33
5595;BME280;1003;48.002;7.788;2022-09-09T09:42:47;98644.81;;;26.13;47.19
5595;BME280;1003;48.002;7.788;2022-09-09T09:45:20;98643.28;;;25.36;48.17
5595;BME280;1003;48.002;7.788;2022-09-09T09:47:59;98638.56;;;24.98;51.35
5595;BME280;1003;48.002;7.788;2022-09-09T09:50:28;98636.31;;;25.05;50.54
5595;BME280;1003;48.002;7.788;2022-09-09T09:52:57;98631.53;;;25.00;51.01
5595;BME280;1003;48.002;7.788;2022-09-09T09:55:29;98639.75;;;24.60;51.27
5595;BME280;1003;48.002;7.788;2022-09-09T09:58:03;98631.91;;;24.84;50.14
5595;BME280;1003;48.002;7.788;2022-09-09T10:00:30;98639.50;;;24.86;49.61
5595;BME280;1003;48.002;7.788;2022-09-09T10:03:00;98632.72;;;24.85;48.79
5595;BME280;1003;48.002;7.788;2022-09-09T10:05:29;98633.97;;;25.24;50.08
5595;BME280;1003;48.002;7.788;2022-09-09T10:08:08;98636.69;;;25.44;49.01
5595;BME280;1003;48.002;7.788;2022-09-09T10:10:53;98626.63;;;25.52;50.99
5595;BME280;1003;48.002;7.788;2022-09-09T10:13:29;98614.66;;;25.30;49.19
5595;BME280;1003;48.002;7.788;2022-09-09T10:16:23;98618.03;;;25.30;45.87
5595;BME280;1003;48.002;7.788;2022-09-09T10:19:06;98610.28;;;24.87;47.35
5595;BME280;1003;48.002;7.788;2022-09-09T10:22:03;98619.78;;;24.42;51.80
5595;BME280;1003;48.002;7.788;2022-09-09T10:25:12;98634.19;;;24.09;48.21
5595;BME280;1003;48.002;7.788;2022-09-09T10:28:10;98638.88;;;24.26;48.15
5595;BME280;1003;48.002;7.788;2022-09-09T10:30:54;98630.94;;;23.72;48.56
5595;BME280;1003;48.002;7.788;2022-09-09T10:33:33;98637.34;;;23.66;47.87
5595;BME280;1003;48.002;7.788;2022-09-09T10:36:12;98648.44;;;23.67;52.56
5595;BME280;1003;48.002;7.788;2022-09-09T10:38:42;98639.69;;;23.69;57.42
5595;BME280;1003;48.002;7.788;2022-09-09T10:41:38;98642.03;;;24.07;52.95
5595;BME280;1003;48.002;7.788;2022-09-09T10:50:42;98641.59;;;25.15;48.72
5595;BME280;1003;48.002;7.788;2022-09-09T10:53:24;98637.84;;;25.07;49.64
5595;BME280;1003;48.002;7.788;2022-09-09T10:56:01;98636.59;;;25.34;51.32
5595;BME280;1003;48.002;7.788;2022-09-09T10:58:37;98654.16;;;25.40;48.55
5595;BME280;1003;48.002;7.788;2022-09-09T11:01:15;98658.06;;;25.12;48.79
5595;BME280;1003;48.002;7.788;2022-09-09T11:03:51;98658.88;;;25.56;50.63
5595;BME280;1003;48.002;7.788;2022-09-09T11:06:29;98667.47;;;25.77;47.19
5595;BME280;1003;48.002;7.788;2022-09-09T11:09:02;98673.63;;;25.86;46.28
5595;BME280;1003;48.002;7.788;2022-09-09T11:11:39;98660.06;;;25.20;49.16
5595;BME280;1003;48.002;7.788;2022-09-09T11:14:15;98673.63;;;24.88;51.42
5595;BME280;1003;48.002;7.788;2022-09-09T11:16:52;98668.94;;;24.48;52.00
5595;BME280;1003;48.002;7.788;2022-09-09T11:19:28;98658.09;;;24.67;51.47
5595;BME280;1003;48.002;7.788;2022-09-09T11:22:01;98662.63;;;24.97;52.16
5595;BME280;1003;48.002;7.788;2022-09-09T11:24:35;98665.91;;;24.88;53.12
5595;BME280;1003;48.002;7.788;2022-09-09T11:27:11;98662.97;;;25.15;49.99
5595;BME280;1003;48.002;7.788;2022-09-09T11:30:14;98668.34;;;25.55;50.60
5595;BME280;1003;48.002;7.788;2022-09-09T11:33:28;98661.06;;;25.92;51.40
5595;BME280;1003;48.002;7.788;2022-09-09T11:36:19;98656.94;;;26.22;47.17
5595;BME280;1003;48.002;7.788;2022-09-09T11:38:52;98654.88;;;25.63;48.24
5595;BME280;1003;48.002;7.788;2022-09-09T11:41:21;98661.44;;;25.01;48.98
5595;BME280;1003;48.002;7.788;2022-09-09T11:43:51;98649.63;;;25.21;49.13
5595;BME280;1003;48.002;7.788;2022-09-09T11:46:22;98648.22;;;25.17;48.84
5595;BME280;1003;48.002;7.788;2022-09-09T11:49:02;98649.47;;;25.34;49.21
5595;BME280;1003;48.002;7.788;2022-09-09T11:51:32;98648.03;;;25.52;49.01
5595;BME280;1003;48.002;7.788;2022-09-09T11:54:03;98645.25;;;25.65;49.94
5595;BME280;1003;48.002;7.788;2022-09-09T11:56:49;98646.78;;;25.68;50.80
5595;BME280;1003;48.002;7.788;2022-09-09T11:59:21;98634.91;;;25.12;48.99
5595;BME280;1003;48.002;7.788;2022-09-09T12:01:53;98659.84;;;24.67;49.74
5595;BME280;1003;48.002;7.788;2022-09-09T12:04:36;98654.59;;;23.99;48.62
5595;BME280;1003;48.002;7.788;2022-09-09T12:07:25;98661.88;;;24.05;48.45
5595;BME280;1003;48.002;7.788;2022-09-09T12:09:57;98655.31;;;24.01;47.15
5595;BME280;1003;48.002;7.788;2022-09-09T12:12:31;98658.81;;;24.00;46.74
5595;BME280;1003;48.002;7.788;2022-09-09T12:15:23;98655.75;;;24.64;47.07
5595;BME280;1003;48.002;7.788;2022-09-09T12:17:52;98654.50;;;25.68;44.78
5595;BME280;1003;48.002;7.788;2022-09-09T12:20:32;98654.50;;;26.51;43.77
5595;BME280;1003;48.002;7.788;2022-09-09T12:23:40;98653.44;;;26.94;42.61
5595;BME280;1003;48.002;7.788;2022-09-09T12:26:31;98644.78;;;26.55;43.43
5595;BME280;1003;48.002;7.788;2022-09-09T12:29:14;98656.44;;;26.07;44.28
5595;BME280;1003;48.002;7.788;2022-09-09T12:31:53;98651.94;;;25.35;45.15
5595;BME280;1003;48.002;7.788;2022-09-09T12:34:38;98658.44;;;24.63;44.98
5595;BME280;1003;48.002;7.788;2022-09-09T12:37:29;98655.75;;;24.53;48.17
5595;BME280;1003;48.002;7.788;2022-09-09T12:40:00;98649.22;;;24.60;47.19
5595;BME280;1003;48.002;7.788;2022-09-09T12:42:30;98648.84;;;24.53;49.25
5595;BME280;1003;48.002;7.788;2022-09-09T12:45:01;98655.53;;;24.67;48.20
5595;BME280;1003;48.002;7.788;2022-09-09T12:47:40;98650.59;;;24.53;48.66
5595;BME280;1003;48.002;7.788;2022-09-09T12:50:18;98651.28;;;24.32;48.76
5595;BME280;1003;48.002;7.788;2022-09-09T12:52:50;98645.38;;;23.97;51.17
5595;BME280;1003;48.002;7.788;2022-09-09T12:55:23;98641.91;;;23.63;51.58
5595;BME280;1003;48.002;7.788;2022-09-09T12:57:52;98633.00;;;23.31;51.43
5595;BME280;1003;48.002;7.788;2022-09-09T13:00:22;98640.34;;;23.36;52.80
5595;BME280;1003;48.002;7.788;2022-09-09T13:02:53;98637.03;;;23.47;50.44
5595;BME280;1003;48.002;7.788;2022-09-09T13:05:24;98637.19;;;23.92;51.84
5595;BME280;1003;48.002;7.788;2022-09-09T13:08:00;98638.69;;;23.83;50.12
5595;BME280;1003;48.002;7.788;2022-09-09T13:10:33;98637.03;;;23.71;50.41
5595;BME280;1003;48.002;7.788;2022-09-09T13:13:02;98633.34;;;23.62;52.09
5595;BME280;1003;48.002;7.788;2022-09-09T13:15:30;98621.84;;;23.20;49.96
5595;BME280;1003;48.002;7.788;2022-09-09T13:18:01;98629.38;;;23.10;50.87
5595;BME280;1003;48.002;7.788;2022-09-09T13:20:30;98647.47;;;22.70;53.86
5595;BME280;1003;48.002;7.788;2022-09-09T13:22:58;98652.00;;;22.41;59.04
5595;BME280;1003;48.002;7.788;2022-09-09T13:25:27;98651.03;;;21.91;59.73
5595;BME280;1003;48.002;7.788;2022-09-09T13:27:59;98654.06;;;21.84;60.46
5595;BME280;1003;48.002;7.788;2022-09-09T13:30:30;98648.44;;;21.79;60.75
5595;BME280;1003;48.002;7.788;2022-09-09T13:33:20;98655.31;;;21.51;60.44
5595;BME280;1003;48.002;7.788;2022-09-09T13:35:52;98643.53;;;21.21;64.78
5595;BME280;1003;48.002;7.788;2022-09-09T13:38:23;98646.25;;;20.77;74.39
5595;BME280;1003;48.002;7.788;2022-09-09T13:40:58;98653.09;;;20.48;78.11
5595;BME280;1003;48.002;7.788;2022-09-09T13:43:30;98642.50;;;20.83;86.07
5595;BME280;1003;48.002;7.788;2022-09-09T13:46:00;98638.50;;;21.20;78.03
5595;BME280;1003;48.002;7.788;2022-09-09T13:48:28;98636.59;;;21.51;74.29
5595;BME280;1003;48.002;7.788;2022-09-09T13:51:01;98635.75;;;21.77;66.66
5595;BME280;1003;48.002;7.788;2022-09-09T13:53:30;98624.66;;;22.42;64.18
5595;BME280;1003;48.002;7.788;2022-09-09T13:55:58;98623.25;;;23.00;62.95
5595;BME280;1003;48.002;7.788;2022-09-09T13:58:25;98622.97;;;23.40;62.40